Time;durP1;ratioP1;P1;durP2;ratioP2;P2;SDS_P1;SDS_P2;PMS_P1;PMS_P2;Temp;Humidity;BMP_temperature;BMP_pressure;BME280_temperature;BME280_humidity;BME280_pressure;Samples;Min_cycle;Max_cycle;Signal;HPM_P1;HPM_P2
2021/10/01 00:01:23;;;;;;;4.10;3.90;;;;;;;8.69;78.36;101480.53;4388365;32;20082;-71
2021/10/01 00:03:48;;;;;;;4.15;3.95;;;;;;;9.99;78.25;101684.97;4391242;32;20842;-71
2021/10/01 00:06:14;;;;;;;5.80;5.55;;;;;;;9.97;78.46;101686.81;4386254;32;20143;-71
2021/10/01 00:08:39;;;;;;;4.30;4.10;;;;;;;10.00;78.19;101684.06;4382838;32;20070;-71
2021/10/01 00:11:05;;;;;;;5.30;5.10;;;;;;;9.92;78.06;101668.63;4375425;32;20109;-72
2021/10/01 00:13:30;;;;;;;3.95;3.80;;;;;;;10.02;77.79;101681.37;4379974;32;20073;-71
2021/10/01 00:15:56;;;;;;;4.15;3.95;;;;;;;9.95;77.99;101665.88;4364018;32;20084;-71
2021/10/01 00:18:21;;;;;;;4.20;4.00;;;;;;;9.87;77.71;101672.28;4374908;32;22212;-71
2021/10/01 00:20:46;;;;;;;4.10;3.90;;;;;;;9.87;78.34;101667.91;4365196;32;20116;-72
2021/10/01 00:23:12;;;;;;;5.78;5.55;;;;;;;9.52;77.50;101606.16;4397662;32;20281;-71
2021/10/01 00:25:37;;;;;;;4.20;4.00;;;;;;;9.84;78.47;101659.28;4394377;32;20073;-71
2021/10/01 00:28:03;;;;;;;5.00;4.80;;;;;;;9.82;78.74;101664.56;4392020;32;20942;-69
2021/10/01 00:30:28;;;;;;;17.65;16.75;;;;;;;9.80;78.05;101653.28;4366290;32;20477;-72
2021/10/01 00:32:54;;;;;;;4.20;4.00;;;;;;;9.76;79.04;101664.75;4355257;32;20084;-70
2021/10/01 00:35:20;;;;;;;4.10;3.90;;;;;;;9.71;78.16;101650.97;4391504;32;20081;-70
2021/10/01 00:37:45;;;;;;;4.10;3.90;;;;;;;9.73;77.93;101649.16;4383260;32;20069;-70
2021/10/01 00:40:11;;;;;;;4.30;4.10;;;;;;;9.62;79.07;101638.16;4379244;32;20080;-71
2021/10/01 00:42:36;;;;;;;4.10;3.90;;;;;;;9.61;79.27;101644.31;4397245;32;20663;-70
2021/10/01 00:45:02;;;;;;;5.40;5.15;;;;;;;9.55;79.15;101635.75;4383720;32;20092;-70
2021/10/01 00:47:27;;;;;;;4.00;3.80;;;;;;;9.54;78.67;101643.66;4384166;32;20936;-70
2021/10/01 00:49:52;;;;;;;4.00;3.80;;;;;;;9.51;78.69;101641.16;4383742;32;20070;-70
2021/10/01 00:52:18;;;;;;;4.97;4.78;;;;;;;9.46;78.74;101638.69;4415207;32;20081;-71
2021/10/01 00:54:44;;;;;;;3.97;3.80;;;;;;;9.42;79.51;101634.44;4389781;32;20084;-70
2021/10/01 00:57:09;;;;;;;5.75;5.53;;;;;;;8.45;78.80;101476.94;4392300;32;20161;-71
2021/10/01 00:59:34;;;;;;;4.12;3.92;;;;;;;9.33;79.90;101637.34;4395708;32;21062;-70
2021/10/01 01:02:00;;;;;;;4.55;4.35;;;;;;;9.28;80.13;101632.28;4380256;32;20065;-70
2021/10/01 01:04:25;;;;;;;4.10;3.90;;;;;;;9.24;79.85;101629.78;4393640;32;20671;-70
2021/10/01 01:07:07;;;;;;;4.10;3.90;;;;;;;9.21;80.41;101625.50;4382647;32;20084;-70
2021/10/01 01:09:37;;;;;;;4.32;4.12;;;;;;;9.12;80.10;101615.31;4398597;32;20089;-70
2021/10/01 01:12:08;;;;;;;5.05;4.85;;;;;;;9.14;80.04;101640.56;4390927;32;20088;-70
2021/10/01 01:14:50;;;;;;;4.30;4.10;;;;;;;9.19;80.69;101611.59;4407835;32;20756;-70
2021/10/01 01:17:34;;;;;;;5.65;5.45;;;;;;;9.14;80.38;101619.59;4394428;32;20093;-71
2021/10/01 01:20:07;;;;;;;4.45;4.25;;;;;;;9.11;79.69;101611.84;4388782;32;20064;-70
2021/10/01 01:22:40;;;;;;;4.18;3.97;;;;;;;9.04;80.83;101601.59;4399458;32;20552;-70
2021/10/01 01:25:16;;;;;;;;;;;;;;;9.03;80.93;101602.50;4401945;32;20073;-70
2021/10/01 01:27:43;;;;;;;4.20;4.00;;;;;;;8.99;81.00;101599.13;4400064;32;20560;-70
2021/10/01 01:30:15;;;;;;;5.62;5.43;;;;;;;8.97;81.36;101604.41;4388286;32;20186;-69
2021/10/01 01:32:41;;;;;;;4.15;3.95;;;;;;;8.44;80.74;101514.44;4399756;32;20139;-69
2021/10/01 01:35:27;;;;;;;4.20;4.00;;;;;;;8.89;81.09;101598.53;4406110;32;20072;-70
2021/10/01 01:37:55;;;;;;;4.07;3.87;;;;;;;8.85;80.59;101591.69;4389615;32;20148;-70
2021/10/01 01:40:22;;;;;;;4.20;4.00;;;;;;;8.82;80.85;101588.31;4376709;32;20077;-69
2021/10/01 01:42:47;;;;;;;3.75;3.65;;;;;;;8.81;81.02;101587.47;4395079;32;20081;-69
2021/10/01 01:45:14;;;;;;;5.30;5.10;;;;;;;8.76;81.11;101581.53;4379204;32;20084;-69
2021/10/01 01:47:40;;;;;;;4.10;3.90;;;;;;;8.74;81.81;101581.56;4409361;32;20069;-69
2021/10/01 01:50:05;;;;;;;5.65;5.45;;;;;;;8.39;82.28;101536.34;4373410;32;20987;-67
2021/10/01 01:52:30;;;;;;;4.10;3.90;;;;;;;8.74;82.00;101589.41;4369890;32;20085;-69
2021/10/01 01:54:56;;;;;;;3.75;3.65;;;;;;;8.71;81.01;101583.41;4369408;32;20081;-70
2021/10/01 01:57:23;;;;;;;4.10;3.90;;;;;;;8.68;82.39;101580.88;4377652;32;20958;-69
2021/10/01 01:59:49;;;;;;;4.35;4.15;;;;;;;8.65;82.22;101579.22;4372460;32;20084;-70
2021/10/01 02:02:14;;;;;;;6.10;5.80;;;;;;;8.60;82.28;101570.66;4368264;32;20062;-70
2021/10/01 02:04:39;;;;;;;3.90;3.80;;;;;;;8.65;82.17;101575.75;4378833;32;20631;-69
2021/10/01 02:07:05;;;;;;;5.55;5.35;;;;;;;8.72;81.16;101572.03;4382553;32;20078;-70
2021/10/01 02:09:33;;;;;;;4.10;3.90;;;;;;;8.74;81.87;101567.59;4388473;32;20130;-69
2021/10/01 02:11:58;;;;;;;4.10;3.90;;;;;;;8.77;81.86;101567.53;4364360;32;20066;-70
2021/10/01 02:14:25;;;;;;;4.18;3.97;;;;;;;8.77;80.82;101565.75;4374561;32;20073;-69
2021/10/01 02:16:50;;;;;;;4.10;3.90;;;;;;;8.82;81.77;101564.75;4369365;32;20099;-70
2021/10/01 02:19:17;;;;;;;5.87;5.62;;;;;;;8.71;81.34;101525.84;4363769;32;20820;-69
2021/10/01 02:21:42;;;;;;;4.00;3.80;;;;;;;8.91;80.11;101559.25;4377900;32;20563;-69
2021/10/01 02:24:07;;;;;;;6.50;6.00;;;;;;;8.87;80.40;101562.87;4363890;32;20062;-70
2021/10/01 02:26:41;;;;;;;3.70;3.60;;;;;;;7.92;80.52;101401.81;4389014;32;20802;-69
2021/10/01 02:29:11;;;;;;;5.20;5.00;;;;;;;8.82;79.82;101547.31;4361733;32;20176;-70
2021/10/01 02:31:46;;;;;;;3.90;3.80;;;;;;;8.79;81.13;101548.25;4398055;32;20192;-69
2021/10/01 02:34:11;;;;;;;5.15;4.95;;;;;;;8.82;81.26;101542.06;4365403;32;20599;-70
2021/10/01 02:36:37;;;;;;;3.78;3.67;;;;;;;8.79;80.28;101537.78;4377188;32;20077;-69
2021/10/01 02:39:02;;;;;;;4.60;4.40;;;;;;;8.69;79.96;101518.03;4375501;32;20191;-69
2021/10/01 02:41:28;;;;;;;4.28;4.07;;;;;;;8.81;81.02;101534.25;4346432;32;20070;-69
2021/10/01 02:43:53;;;;;;;4.18;3.97;;;;;;;8.78;80.19;101528.22;4365544;32;20088;-69
2021/10/01 02:46:18;;;;;;;4.62;4.43;;;;;;;8.78;81.05;101530.84;4365734;32;20140;-70
2021/10/01 02:48:44;;;;;;;4.00;3.80;;;;;;;8.83;81.07;101529.84;4386377;32;20196;-69
2021/10/01 02:51:12;;;;;;;3.90;3.78;;;;;;;8.88;81.27;101518.31;4373083;32;20066;-69
2021/10/01 02:53:45;;;;;;;3.80;3.70;;;;;;;8.94;80.15;101520.75;4365231;32;20932;-69
2021/10/01 02:56:25;;;;;;;3.85;3.75;;;;;;;8.89;80.38;101499.06;4388667;32;20058;-68
2021/10/01 02:59:03;;;;;;;3.97;3.80;;;;;;;9.01;80.16;101517.91;4367108;32;20088;-69
2021/10/01 03:01:29;;;;;;;3.80;3.70;;;;;;;9.01;79.56;101517.91;4379613;32;20188;-69
2021/10/01 03:03:59;;;;;;;4.10;3.90;;;;;;;8.96;80.69;101518.94;4362545;32;20132;-69
2021/10/01 03:06:24;;;;;;;3.70;3.60;;;;;;;8.96;80.51;101516.31;4366819;32;20129;-69
2021/10/01 03:08:50;;;;;;;3.80;3.70;;;;;;;8.95;79.84;101511.13;4379772;32;20906;-69
2021/10/01 03:11:17;;;;;;;5.62;5.43;;;;;;;8.49;80.33;101437.53;4377847;32;20077;-71
2021/10/01 03:13:45;;;;;;;4.00;3.80;;;;;;;9.01;79.76;101510.06;4366942;32;20156;-70
2021/10/01 03:16:10;;;;;;;5.87;5.62;;;;;;;9.01;79.83;101505.69;4402175;32;20136;-70
2021/10/01 03:18:35;;;;;;;4.00;3.83;;;;;;;9.01;80.33;101505.69;4410911;32;20517;-70
2021/10/01 03:21:02;;;;;;;4.62;4.45;;;;;;;9.02;80.02;101503.91;4394798;32;20076;-71
2021/10/01 03:23:27;;;;;;;3.75;3.65;;;;;;;9.04;80.75;101508.22;4363619;32;20098;-71
2021/10/01 03:25:53;;;;;;;4.00;3.80;;;;;;;9.04;80.50;101507.34;4382318;32;20968;-70
2021/10/01 03:28:18;;;;;;;4.30;4.10;;;;;;;9.05;79.73;101499.44;4364805;32;20444;-71
2021/10/01 03:30:46;;;;;;;3.70;3.60;;;;;;;9.03;80.05;101503.88;4363248;32;20831;-70
2021/10/01 03:33:12;;;;;;;5.50;5.30;;;;;;;9.08;80.13;101499.34;4372813;32;20096;-70
2021/10/01 03:35:40;;;;;;;4.30;4.10;;;;;;;9.13;79.75;101499.19;4378757;32;20077;-71
2021/10/01 03:38:05;;;;;;;5.68;5.47;;;;;;;9.10;80.03;101500.16;4362721;32;20124;-71
2021/10/01 03:40:31;;;;;;;3.90;3.80;;;;;;;7.90;80.09;101302.53;4374644;32;20069;-70
2021/10/01 03:42:56;;;;;;;3.75;3.65;;;;;;;9.08;80.76;101501.97;4389543;32;20185;-70
2021/10/01 03:45:22;;;;;;;3.78;3.67;;;;;;;9.04;80.65;101495.13;4371581;32;20074;-70
2021/10/01 03:47:47;;;;;;;3.83;3.72;;;;;;;9.04;79.96;101491.63;4360465;32;20084;-70
2021/10/01 03:50:13;;;;;;;5.55;5.35;;;;;;;8.68;79.82;101440.44;4355659;32;20104;-70
2021/10/01 03:52:38;;;;;;;4.00;3.80;;;;;;;8.93;80.42;101494.59;4375088;32;20106;-70
2021/10/01 03:55:06;;;;;;;5.72;5.47;;;;;;;8.89;80.47;101483.38;4354262;32;20078;-70
2021/10/01 03:57:31;;;;;;;4.10;3.90;;;;;;;8.84;81.65;101492.28;4389447;32;20070;-70
2021/10/01 03:59:56;;;;;;;4.03;3.83;;;;;;;8.80;81.08;101478.44;4374488;32;20058;-70
2021/10/01 04:02:22;;;;;;;4.10;3.90;;;;;;;8.76;82.07;101485.53;4380426;32;20131;-70
2021/10/01 04:04:47;;;;;;;3.95;3.75;;;;;;;8.83;80.98;101482.72;4370040;32;20756;-70
2021/10/01 04:07:13;;;;;;;5.90;5.65;;;;;;;8.76;80.97;101479.47;4374503;32;20073;-71
2021/10/01 04:09:38;;;;;;;3.95;3.80;;;;;;;8.77;81.09;101471.53;4377249;32;20062;-71
2021/10/01 04:12:04;;;;;;;5.43;5.22;;;;;;;8.54;81.19;101430.41;4361765;32;20086;-71
2021/10/01 04:14:30;;;;;;;4.35;4.15;;;;;;;8.74;81.28;101465.53;4379418;32;20133;-70
2021/10/01 04:16:55;;;;;;;4.90;4.70;;;;;;;8.73;81.76;101462.06;4380855;32;20077;-70
2021/10/01 04:19:21;;;;;;;4.15;3.95;;;;;;;8.73;80.97;101466.47;4382093;32;20173;-70
2021/10/01 04:21:46;;;;;;;4.10;3.90;;;;;;;8.71;81.69;101466.50;4385623;32;20077;-71
2021/10/01 04:24:11;;;;;;;5.45;5.25;;;;;;;8.66;81.53;101459.69;4386785;32;20070;-70
2021/10/01 04:26:37;;;;;;;3.70;3.60;;;;;;;8.67;81.76;101461.44;4385687;32;20560;-71
2021/10/01 04:29:02;;;;;;;4.87;4.68;;;;;;;8.69;82.40;101462.22;4374679;32;20120;-70
2021/10/01 04:31:28;;;;;;;3.97;3.83;;;;;;;8.57;81.59;101446.00;4393727;32;20089;-71
2021/10/01 04:33:53;;;;;;;3.92;3.80;;;;;;;8.43;82.01;101426.44;4383944;32;20171;-71
2021/10/01 04:36:18;;;;;;;4.00;3.80;;;;;;;8.62;81.43;101458.97;4404147;32;20080;-71
2021/10/01 04:38:44;;;;;;;4.00;3.80;;;;;;;8.57;81.85;101459.09;4378955;32;20105;-71
2021/10/01 04:41:09;;;;;;;5.22;5.03;;;;;;;8.52;81.83;101458.41;4394870;32;20505;-71
2021/10/01 04:43:36;;;;;;;4.30;4.10;;;;;;;8.46;82.03;101453.34;4389465;32;20207;-70
2021/10/01 04:46:01;;;;;;;4.45;4.30;;;;;;;8.42;82.67;101445.62;4368805;32;20827;-71
2021/10/01 04:48:26;;;;;;;3.62;3.53;;;;;;;8.46;81.59;101449.84;4391641;32;20097;-71
2021/10/01 04:50:52;;;;;;;4.10;3.90;;;;;;;8.40;82.92;101432.59;4379123;32;20081;-71
2021/10/01 04:53:17;;;;;;;4.25;4.05;;;;;;;8.17;82.25;101394.06;4364810;32;20066;-71
2021/10/01 04:55:46;;;;;;;3.60;3.50;;;;;;;8.47;81.81;101441.97;4364752;32;20096;-71
2021/10/01 04:58:11;;;;;;;5.25;5.05;;;;;;;8.08;81.77;101376.03;4392298;32;20077;-70
2021/10/01 05:00:36;;;;;;;4.00;3.80;;;;;;;8.46;82.60;101429.81;4376812;32;20147;-70
2021/10/01 05:03:02;;;;;;;5.20;5.00;;;;;;;8.09;82.52;101370.78;4390253;32;20815;-70
2021/10/01 05:05:27;;;;;;;4.10;3.90;;;;;;;8.44;82.29;101436.84;4391627;32;20080;-70
2021/10/01 05:07:52;;;;;;;3.60;3.50;;;;;;;8.40;82.59;101432.59;4393373;32;20685;-70
2021/10/01 05:10:18;;;;;;;4.15;3.95;;;;;;;8.14;82.34;101388.94;4394864;32;20632;-70
2021/10/01 05:12:43;;;;;;;3.67;3.58;;;;;;;8.25;82.57;101418.22;4382026;32;20084;-70
2021/10/01 05:15:09;;;;;;;5.85;5.60;;;;;;;8.37;81.84;101440.53;4393961;32;20095;-70
2021/10/01 05:17:37;;;;;;;3.95;3.80;;;;;;;8.29;82.09;101426.81;4405748;32;20104;-70
2021/10/01 05:20:04;;;;;;;4.40;4.20;;;;;;;8.23;82.75;101419.19;4406026;32;20073;-69
2021/10/01 05:22:29;;;;;;;4.00;3.80;;;;;;;8.07;81.81;101390.03;4387850;32;20088;-70
2021/10/01 05:24:54;;;;;;;3.72;3.62;;;;;;;8.29;82.59;101432.06;4384884;32;20085;-70
2021/10/01 05:27:20;;;;;;;4.30;4.10;;;;;;;8.28;81.94;101436.44;4379707;32;20072;-70
2021/10/01 05:29:45;;;;;;;4.15;3.95;;;;;;;8.30;82.82;101436.38;4366002;32;20073;-70
2021/10/01 05:32:11;;;;;;;3.80;3.70;;;;;;;8.07;81.63;101410.94;4371255;32;20081;-71
2021/10/01 05:34:36;;;;;;;4.00;3.80;;;;;;;8.01;82.58;101400.66;4393770;32;20093;-72
2021/10/01 05:37:02;;;;;;;4.70;4.50;;;;;;;8.26;82.05;101433.00;4375149;32;20097;-72
2021/10/01 05:39:29;;;;;;;4.10;3.90;;;;;;;8.28;81.53;101427.72;4379869;32;20061;-70
2021/10/01 05:41:55;;;;;;;4.10;3.90;;;;;;;7.66;82.76;101319.84;4370278;32;20668;-72
2021/10/01 05:44:20;;;;;;;4.05;3.85;;;;;;;8.26;81.37;101412.09;4393646;32;20088;-71
2021/10/01 05:46:46;;;;;;;4.00;3.80;;;;;;;8.38;82.30;101426.56;4386004;32;20575;-72
2021/10/01 05:49:18;;;;;;;3.95;3.78;;;;;;;8.46;80.99;101427.19;4379749;32;20140;-72
2021/10/01 05:51:48;;;;;;;4.07;3.87;;;;;;;8.52;80.71;101426.13;4389765;32;20089;-72
2021/10/01 05:54:21;;;;;;;5.35;5.15;;;;;;;8.60;80.60;101424.16;4386685;32;20160;-72
2021/10/01 05:56:48;;;;;;;4.15;3.95;;;;;;;8.64;80.79;101411.78;4387712;32;20745;-71
2021/10/01 05:59:13;;;;;;;6.07;5.78;;;;;;;8.72;79.57;101421.13;4376414;32;20080;-72
2021/10/01 06:01:38;;;;;;;4.05;3.85;;;;;;;8.76;80.16;101416.66;4387371;32;20151;-71
2021/10/01 06:04:05;;;;;;;5.50;5.30;;;;;;;8.79;79.18;101414.75;4388299;32;20069;-71
2021/10/01 06:06:31;;;;;;;3.95;3.78;;;;;;;8.89;79.28;101425.78;4379648;32;20065;-71
2021/10/01 06:08:56;;;;;;;4.40;4.20;;;;;;;8.96;78.08;101415.94;4396145;32;20077;-72
2021/10/01 06:11:21;;;;;;;4.00;3.80;;;;;;;9.11;78.26;101419.81;4377088;32;20575;-72
2021/10/01 06:13:47;;;;;;;3.90;3.75;;;;;;;9.16;77.96;101413.53;4388256;32;20085;-72
2021/10/01 06:16:12;;;;;;;5.65;5.45;;;;;;;9.29;77.19;101403.47;4374679;32;21050;-72
2021/10/01 06:18:37;;;;;;;4.10;3.90;;;;;;;9.39;75.87;101406.63;4369545;32;20134;-71
2021/10/01 06:21:03;;;;;;;5.45;5.25;;;;;;;9.46;76.57;101400.25;4380950;32;20072;-72
2021/10/01 06:23:33;;;;;;;4.00;3.80;;;;;;;9.51;75.49;101405.31;4391154;32;20093;-72
2021/10/01 06:26:00;;;;;;;3.80;3.70;;;;;;;9.59;74.88;101401.50;4391706;32;20088;-72
2021/10/01 06:28:25;;;;;;;3.95;3.78;;;;;;;9.64;75.02;101410.94;4397140;32;20073;-71
2021/10/01 06:30:50;;;;;;;3.85;3.72;;;;;;;9.68;74.89;101410.81;4397387;32;20091;-72
2021/10/01 06:33:16;;;;;;;3.90;3.80;;;;;;;9.67;74.84;101395.97;4398442;32;20092;-72
2021/10/01 06:35:43;;;;;;;4.10;3.90;;;;;;;9.78;75.03;101406.94;4395690;32;20079;-72
2021/10/01 06:38:10;;;;;;;5.20;5.00;;;;;;;9.90;74.50;101399.50;4392407;32;20108;-72
2021/10/01 06:40:36;;;;;;;4.10;3.90;;;;;;;9.98;73.50;101406.16;4399417;32;20080;-72
2021/10/01 06:43:06;;;;;;;4.78;4.55;;;;;;;10.02;73.56;101388.53;4378175;32;20559;-71
2021/10/01 06:45:32;;;;;;;4.05;3.85;;;;;;;10.22;72.84;101413.13;4393785;32;20142;-71
2021/10/01 07:39:25;;;;;;;5.07;4.85;;;;;;;12.31;64.37;101378.66;4400845;32;20143;-71
2021/10/01 08:19:59;;;;;;;4.30;4.10;;;;;;;12.90;61.13;101323.06;4373781;32;20152;-68
2021/10/01 08:22:24;;;;;;;4.20;4.00;;;;;;;13.33;61.30;101376.16;4356578;32;20086;-71
2021/10/01 08:24:50;;;;;;;4.43;4.22;;;;;;;13.49;60.64;101374.44;4357993;32;20101;-69
2021/10/01 08:27:16;;;;;;;4.70;4.50;;;;;;;13.51;60.29;101356.75;4362699;32;20085;-72
2021/10/01 08:29:41;;;;;;;4.55;4.35;;;;;;;13.68;59.70;101369.00;4359481;32;20089;-72
2021/10/01 08:32:06;;;;;;;6.40;6.10;;;;;;;13.72;59.50;101367.91;4382961;32;20132;-71
2021/10/01 08:34:33;;;;;;;4.40;4.20;;;;;;;13.73;59.53;101363.47;4370546;32;20092;-70
2021/10/01 08:36:59;;;;;;;4.22;4.03;;;;;;;13.70;59.56;101361.84;4360018;32;20227;-72
2021/10/01 08:39:24;;;;;;;4.50;4.30;;;;;;;13.46;59.47;101335.03;4359192;32;20066;-72
2021/10/01 08:41:50;;;;;;;4.70;4.50;;;;;;;13.60;59.03;101354.53;4371607;32;20089;-73
2021/10/01 08:44:15;;;;;;;5.57;5.37;;;;;;;13.72;59.50;101357.34;4371830;32;20603;-72
2021/10/01 08:46:40;;;;;;;4.20;4.00;;;;;;;12.80;59.45;101196.25;4371191;32;20425;-70
2021/10/01 08:49:07;;;;;;;6.22;5.80;;;;;;;14.03;59.12;101354.78;4376976;32;20069;-71
2021/10/01 08:51:32;;;;;;;4.47;4.28;;;;;;;14.29;57.32;101335.72;4361300;32;20244;-69
2021/10/01 08:53:58;;;;;;;4.68;4.47;;;;;;;14.52;56.78;101326.44;4366783;32;20081;-70
2021/10/01 08:56:24;;;;;;;4.80;4.60;;;;;;;14.61;56.04;101338.25;4367930;32;21201;-69
2021/10/01 08:58:49;;;;;;;4.70;4.50;;;;;;;14.71;56.35;101330.66;4354561;32;20691;-70
2021/10/01 09:01:14;;;;;;;6.30;6.00;;;;;;;14.84;56.36;101326.34;4346130;32;20923;-69
2021/10/01 09:03:41;;;;;;;4.82;4.62;;;;;;;14.89;56.47;101316.34;4365814;32;20077;-70
2021/10/01 09:06:07;;;;;;;6.32;6.03;;;;;;;14.72;54.96;101321.78;4368062;32;20086;-71
2021/10/01 09:08:34;;;;;;;4.60;4.40;;;;;;;15.04;55.96;101317.22;4378989;32;20480;-69
2021/10/01 09:11:03;;;;;;;4.90;4.70;;;;;;;15.42;54.67;101321.09;4355734;32;20074;-71
2021/10/01 09:13:29;;;;;;;4.90;4.60;;;;;;;15.35;54.48;101312.66;4381065;32;20842;-69
2021/10/01 09:16:09;;;;;;;5.00;4.80;;;;;;;15.30;55.45;101318.25;4364245;32;21039;-68
2021/10/01 09:18:36;;;;;;;4.68;4.47;;;;;;;15.15;55.15;101317.41;4375535;32;20084;-70
2021/10/01 09:21:13;;;;;;;4.70;4.50;;;;;;;15.07;55.35;101311.72;4377656;32;20074;-71
2021/10/01 09:23:43;;;;;;;5.00;4.80;;;;;;;15.07;56.23;101302.94;4365514;32;20753;-70
2021/10/01 09:26:10;;;;;;;6.35;6.05;;;;;;;15.24;56.36;101301.91;4378206;32;20084;-72
2021/10/01 09:28:43;;;;;;;4.65;4.45;;;;;;;15.29;55.11;101305.09;4376085;32;20963;-73
2021/10/01 09:31:09;;;;;;;6.10;5.80;;;;;;;15.47;55.50;101300.47;4368073;32;20259;-73
2021/10/01 09:33:42;;;;;;;4.82;4.62;;;;;;;15.58;54.17;101300.66;4371237;32;20947;-72
2021/10/01 09:36:09;;;;;;;6.18;5.87;;;;;;;15.68;54.10;101295.63;4384482;32;20077;-72
2021/10/01 09:38:37;;;;;;;4.70;4.50;;;;;;;15.80;53.06;101299.31;4366112;32;20085;-72
2021/10/01 09:41:33;;;;;;;5.28;5.07;;;;;;;15.74;53.42;101292.59;4379305;32;20606;-72
2021/10/01 09:44:04;;;;;;;5.10;4.90;;;;;;;15.76;53.52;101288.06;4374624;32;20216;-72
2021/10/01 09:46:43;;;;;;;4.80;4.60;;;;;;;15.94;53.07;101283.38;4390308;32;20083;-72
2021/10/01 09:49:09;;;;;;;5.97;5.68;;;;;;;15.92;53.42;101283.47;4377282;32;20077;-73
2021/10/01 09:51:35;;;;;;;5.10;4.70;;;;;;;15.94;53.39;101243.66;4376396;32;20155;-72
2021/10/01 09:54:11;;;;;;;5.35;5.12;;;;;;;16.26;52.86;101273.28;4392546;32;20142;-69
2021/10/01 09:56:37;;;;;;;4.55;4.35;;;;;;;16.46;51.86;101265.81;4381782;32;20078;-71
2021/10/01 09:59:19;;;;;;;5.57;5.32;;;;;;;16.66;52.39;101256.50;4371598;32;20081;-72
2021/10/01 10:02:13;;;;;;;5.03;4.82;;;;;;;16.57;50.41;101259.78;4367669;32;20077;-71
2021/10/01 10:04:44;;;;;;;4.72;4.53;;;;;;;16.81;50.62;101263.41;4374386;32;20089;-69
2021/10/01 10:07:17;;;;;;;6.35;6.05;;;;;;;16.77;51.55;101259.25;4397078;32;20623;-70
2021/10/01 10:09:54;;;;;;;5.07;4.75;;;;;;;16.75;49.30;101235.47;4379584;32;20073;-69
2021/10/01 10:12:25;;;;;;;5.20;4.90;;;;;;;16.83;49.84;101264.16;4385656;32;20081;-70
2021/10/01 10:14:52;;;;;;;4.70;4.50;;;;;;;16.88;49.90;101258.53;4416486;32;20077;-70
2021/10/01 10:17:22;;;;;;;5.85;5.57;;;;;;;17.03;49.96;101253.97;4400309;32;20875;-70
2021/10/01 10:19:49;;;;;;;5.00;4.80;;;;;;;17.15;51.18;101248.62;4394542;32;20068;-71
2021/10/01 10:22:15;;;;;;;5.95;5.65;;;;;;;17.29;49.88;101250.28;4390914;32;20129;-71
2021/10/01 10:24:40;;;;;;;5.00;4.80;;;;;;;17.28;48.82;101245.97;4391252;32;20609;-71
2021/10/01 10:27:05;;;;;;;4.85;4.65;;;;;;;17.48;49.22;101241.88;4370358;32;21197;-71
2021/10/01 10:29:31;;;;;;;4.85;4.65;;;;;;;17.46;50.21;101238.47;4379725;32;20077;-72
2021/10/01 10:31:56;;;;;;;5.00;4.80;;;;;;;17.53;49.18;101247.66;4374342;32;20478;-70
2021/10/01 10:34:27;;;;;;;4.80;4.60;;;;;;;17.42;49.07;101215.78;4378443;32;20762;-72
2021/10/01 10:37:09;;;;;;;4.95;4.75;;;;;;;17.40;49.08;101235.41;4382609;32;20062;-70
2021/10/01 10:39:39;;;;;;;5.72;5.43;;;;;;;17.50;48.52;101236.41;4377534;32;20962;-71
2021/10/01 10:42:30;;;;;;;6.25;5.95;;;;;;;17.51;49.34;101235.47;4367288;32;20084;-70
2021/10/01 10:44:58;;;;;;;4.87;4.68;;;;;;;17.52;48.34;101176.16;4383863;32;20200;-70
2021/10/01 10:47:43;;;;;;;5.00;4.80;;;;;;;17.99;48.39;101218.72;4398929;32;20364;-70
2021/10/01 10:50:32;;;;;;;6.37;6.07;;;;;;;18.13;48.64;101224.69;4397740;32;20072;-70
2021/10/01 10:53:03;;;;;;;5.00;4.80;;;;;;;18.43;48.47;101217.97;4405214;32;20080;-69
2021/10/01 10:55:29;;;;;;;5.05;4.85;;;;;;;18.44;47.04;101209.06;4399218;32;20085;-70
2021/10/01 10:57:54;;;;;;;5.20;4.95;;;;;;;18.53;46.40;101192.38;4391997;32;20975;-70
2021/10/01 11:00:35;;;;;;;4.82;4.62;;;;;;;18.58;46.20;101200.00;4389521;32;20072;-71
2021/10/01 11:03:20;;;;;;;5.25;4.95;;;;;;;18.53;46.89;101199.53;4380984;32;20070;-71
2021/10/01 11:06:17;;;;;;;5.25;4.82;;;;;;;18.61;46.58;101175.84;4401370;32;20097;-70
2021/10/01 11:08:50;;;;;;;5.05;4.85;;;;;;;18.49;46.33;101193.59;4380244;32;20860;-70
2021/10/01 11:11:28;;;;;;;6.28;5.95;;;;;;;18.40;46.81;101185.47;4394421;32;21014;-71
2021/10/01 11:14:14;;;;;;;5.20;5.00;;;;;;;18.54;45.81;101187.91;4387158;32;20085;-72
2021/10/01 11:16:40;;;;;;;4.90;4.70;;;;;;;18.45;46.72;101185.97;4393578;32;20249;-70
2021/10/01 11:19:06;;;;;;;5.97;5.70;;;;;;;18.49;46.76;101171.50;4380816;32;20065;-70
2021/10/01 11:21:33;;;;;;;4.80;4.60;;;;;;;18.58;46.90;101192.00;4387155;32;20601;-70
2021/10/01 11:23:59;;;;;;;5.32;5.03;;;;;;;18.68;46.88;101173.53;4365881;32;20081;-71
2021/10/01 11:26:29;;;;;;;5.30;5.00;;;;;;;18.65;45.64;101177.28;4392269;32;20071;-71
2021/10/01 11:28:54;;;;;;;5.00;4.80;;;;;;;18.62;46.70;101161.59;4376324;32;20117;-69
2021/10/01 11:31:20;;;;;;;5.78;5.55;;;;;;;18.66;46.13;101160.38;4389602;32;20085;-69
2021/10/01 11:33:51;;;;;;;5.10;4.80;;;;;;;18.39;46.38;101165.19;4376137;32;20698;-72
2021/10/01 11:36:25;;;;;;;5.97;5.68;;;;;;;18.43;47.55;101151.53;4392993;32;20151;-68
2021/10/01 11:38:50;;;;;;;5.00;4.80;;;;;;;17.62;47.58;100995.81;4386912;32;20081;-70
2021/10/01 11:41:15;;;;;;;5.50;5.30;;;;;;;18.74;47.41;101151.78;4383974;32;20669;-71
2021/10/01 11:43:52;;;;;;;5.00;4.80;;;;;;;18.91;47.52;101147.81;4392631;32;20658;-70
2021/10/01 11:46:34;;;;;;;6.25;5.95;;;;;;;19.05;46.12;101146.72;4402508;32;20101;-69
2021/10/01 11:49:03;;;;;;;5.07;4.87;;;;;;;18.85;44.84;101150.97;4383725;32;20103;-69
2021/10/01 11:51:31;;;;;;;4.90;4.70;;;;;;;18.65;46.31;101139.22;4376886;32;20078;-69
2021/10/01 11:54:13;;;;;;;5.20;5.00;;;;;;;18.72;46.25;101135.09;4383244;32;20719;-69
2021/10/01 11:56:39;;;;;;;5.05;4.85;;;;;;;18.82;45.11;101138.78;4376017;32;20080;-69
2021/10/01 11:59:04;;;;;;;6.70;6.30;;;;;;;18.68;45.93;101134.53;4385266;32;20076;-69
2021/10/01 12:01:30;;;;;;;4.90;4.70;;;;;;;18.26;45.79;101120.12;4390729;32;20185;-70
2021/10/01 12:03:57;;;;;;;5.12;4.93;;;;;;;18.21;47.25;101130.28;4379273;32;20081;-69
2021/10/01 12:06:30;;;;;;;5.03;4.82;;;;;;;18.06;47.79;101125.19;4393943;32;20086;-69
2021/10/01 12:09:07;;;;;;;4.90;4.70;;;;;;;17.84;47.96;101118.03;4394420;32;20627;-69
2021/10/01 12:11:37;;;;;;;5.00;4.80;;;;;;;17.91;48.59;101113.06;4390693;32;20093;-69
2021/10/01 12:14:16;;;;;;;5.28;5.07;;;;;;;18.17;48.84;101102.25;4389165;32;20073;-69
2021/10/01 12:16:53;;;;;;;4.90;4.70;;;;;;;18.52;47.83;101097.69;4385376;32;20081;-70
2021/10/01 12:19:26;;;;;;;5.82;5.57;;;;;;;18.56;46.87;101087.63;4386966;32;20125;-69
2021/10/01 12:22:04;;;;;;;5.10;4.90;;;;;;;18.64;46.24;101089.69;4393003;32;20130;-69
2021/10/01 12:24:49;;;;;;;5.00;4.80;;;;;;;18.78;47.14;101091.22;4380695;32;20062;-70
2021/10/01 12:27:15;;;;;;;6.72;6.43;;;;;;;18.77;45.72;101087.72;4394935;32;20083;-70
2021/10/01 12:29:51;;;;;;;5.20;5.00;;;;;;;19.02;46.20;101088.41;4380878;32;20607;-70
2021/10/01 12:32:20;;;;;;;6.28;5.97;;;;;;;19.26;44.69;101097.06;4380355;32;20065;-70
2021/10/01 12:34:55;;;;;;;5.10;4.90;;;;;;;19.58;44.98;101076.72;4375851;32;20176;-70
2021/10/01 12:37:24;;;;;;;5.53;5.10;;;;;;;19.80;44.44;101089.09;4372755;32;20066;-70
2021/10/01 12:39:52;;;;;;;5.10;4.90;;;;;;;19.92;43.98;101080.91;4388166;32;20397;-70
2021/10/01 12:42:22;;;;;;;6.25;5.95;;;;;;;19.82;44.36;101085.31;4390000;32;20073;-70
2021/10/01 12:44:58;;;;;;;4.90;4.70;;;;;;;19.92;44.57;101088.03;4396740;32;20080;-70
2021/10/01 12:47:24;;;;;;;4.93;4.72;;;;;;;19.88;43.08;101082.13;4390567;32;20085;-70
2021/10/01 12:50:00;;;;;;;5.20;5.00;;;;;;;19.61;43.94;101076.47;4394209;32;20639;-70
2021/10/01 12:52:26;;;;;;;4.95;4.75;;;;;;;19.76;44.18;101082.31;4390991;32;20069;-71
2021/10/01 12:55:01;;;;;;;5.00;4.80;;;;;;;19.86;44.25;101077.91;4393915;32;20693;-72
2021/10/01 12:57:29;;;;;;;5.20;5.00;;;;;;;19.96;43.58;101064.66;4392284;32;20087;-72
2021/10/01 13:00:00;;;;;;;5.05;4.85;;;;;;;19.99;42.91;101067.91;4408603;32;20073;-68
2021/10/01 13:02:47;;;;;;;4.90;4.70;;;;;;;20.10;42.37;101069.62;4404334;32;20917;-70
2021/10/01 13:05:29;;;;;;;6.40;6.10;;;;;;;20.17;42.51;101056.63;4391143;32;20144;-68